Time;durP1;ratioP1;P1;durP2;ratioP2;P2;SDS_P1;SDS_P2;PMS_P1;PMS_P2;Temp;Humidity;BMP_temperature;BMP_pressure;BME280_temperature;BME280_humidity;BME280_pressure;Samples;Min_cycle;Max_cycle;Signal;HPM_P1;HPM_P2
2022/09/12 00:00:50;;;;;;;12.13;10.68;;;;;;;-145.50;100.00;65435.88;5055133;28;20501;-60
2022/09/12 00:03:16;;;;;;;12.45;10.68;;;;;;;-145.50;100.00;65435.88;5060582;28;20044;-60
2022/09/12 00:05:44;;;;;;;13.43;10.23;;;;;;;-145.50;100.00;65435.88;5052655;28;20566;-62
2022/09/12 00:08:12;;;;;;;15.25;11.70;;;;;;;-145.50;100.00;65435.88;5059653;28;20090;-62
2022/09/12 00:10:40;;;;;;;13.57;10.70;;;;;;;-145.50;100.00;65435.88;5051131;28;20048;-62
2022/09/12 00:13:07;;;;;;;16.02;10.82;;;;;;;-145.50;100.00;65435.88;5052671;28;20090;-61
2022/09/12 00:15:42;;;;;;;11.93;10.37;;;;;;;-145.50;100.00;65435.88;5057831;28;20137;-61
2022/09/12 00:18:13;;;;;;;14.75;11.75;;;;;;;-145.50;100.00;65435.88;5063091;28;20044;-62
2022/09/12 00:20:44;;;;;;;13.50;10.63;;;;;;;-145.50;100.00;65435.88;5063512;28;20335;-61
2022/09/12 00:23:12;;;;;;;14.65;11.90;;;;;;;-145.50;100.00;65435.88;5053969;28;20056;-62
2022/09/12 00:25:43;;;;;;;14.48;12.07;;;;;;;-145.50;100.00;65435.88;5061295;28;20052;-61
2022/09/12 00:28:11;;;;;;;13.43;11.55;;;;;;;-145.50;100.00;65435.88;5053509;28;20106;-61
2022/09/12 00:30:47;;;;;;;14.13;11.85;;;;;;;-145.50;100.00;65435.88;5060856;28;20638;-62
2022/09/12 00:33:16;;;;;;;14.90;11.88;;;;;;;-145.50;100.00;65435.88;5058028;28;20055;-61
2022/09/12 00:35:43;;;;;;;;;;;;;;;-145.50;100.00;65435.88;5064741;28;20098;-62
2022/09/12 00:38:11;;;;;;;14.93;11.55;;;;;;;-145.50;100.00;65435.88;5058406;28;19994;-62
2022/09/12 00:40:38;;;;;;;15.70;11.27;;;;;;;-145.50;100.00;65435.88;5058789;28;20136;-61
2022/09/12 00:43:05;;;;;;;14.90;11.23;;;;;;;-145.50;100.00;65435.88;5061555;28;20277;-62
2022/09/12 00:45:31;;;;;;;12.93;10.75;;;;;;;-145.50;100.00;65435.88;5057436;28;20080;-61
2022/09/12 00:48:02;;;;;;;14.98;11.20;;;;;;;-145.50;100.00;65435.88;5062535;28;20049;-61
2022/09/12 00:50:31;;;;;;;13.75;10.93;;;;;;;-145.50;100.00;65435.88;5055581;28;20048;-62
2022/09/12 00:53:03;;;;;;;14.88;11.07;;;;;;;-145.50;100.00;65435.88;5061544;28;20306;-62
2022/09/12 00:55:32;;;;;;;15.45;11.88;;;;;;;-145.50;100.00;65435.88;5049928;28;20080;-61
2022/09/12 00:58:07;;;;;;;12.95;11.20;;;;;;;-145.50;100.00;65435.88;5062161;28;20072;-61
2022/09/12 01:00:33;;;;;;;13.63;10.68;;;;;;;-145.50;100.00;65435.88;5065156;28;20045;-62
2022/09/12 01:03:06;;;;;;;13.75;11.57;;;;;;;-145.50;100.00;65435.88;5058327;28;20040;-56
2022/09/12 01:05:36;;;;;;;12.45;10.20;;;;;;;-145.50;100.00;65435.88;5064299;28;20058;-56
2022/09/12 01:08:04;;;;;;;16.38;11.15;;;;;;;-145.50;100.00;65435.88;5047846;28;20094;-58
2022/09/12 01:10:34;;;;;;;15.68;11.93;;;;;;;-145.50;100.00;65435.88;5060403;28;20417;-61
2022/09/12 01:13:03;;;;;;;14.07;11.18;;;;;;;-145.50;100.00;65435.88;5057133;28;20466;-60
2022/09/12 01:15:30;;;;;;;16.40;11.00;;;;;;;-145.50;100.00;65435.88;5064140;28;20656;-64
2022/09/12 01:18:17;;;;;;;15.57;11.60;;;;;;;-145.50;100.00;65435.88;5058658;28;20608;-61
2022/09/12 01:21:04;;;;;;;13.63;11.20;;;;;;;-145.50;100.00;65435.88;5062800;28;20121;-61
2022/09/12 01:24:06;;;;;;;13.23;10.73;;;;;;;-145.50;100.00;65435.88;5058409;28;20091;-60
2022/09/12 01:26:53;;;;;;;14.52;10.30;;;;;;;-145.50;100.00;65435.88;5061053;28;20583;-62
2022/09/12 01:29:55;;;;;;;13.82;10.82;;;;;;;-145.50;100.00;65435.88;5061755;28;20088;-60
2022/09/12 01:33:00;;;;;;;12.63;10.10;;;;;;;-145.50;100.00;65435.88;5045416;28;20405;-62
2022/09/12 01:35:41;;;;;;;14.50;10.70;;;;;;;-145.50;100.00;65435.88;5031254;28;20459;-61
2022/09/12 01:38:55;;;;;;;12.57;10.43;;;;;;;-145.50;100.00;65435.88;5058553;28;20110;-60
2022/09/12 01:41:36;;;;;;;13.05;10.73;;;;;;;-145.50;100.00;65435.88;5033580;28;20049;-61
2022/09/12 01:44:21;;;;;;;13.07;10.60;;;;;;;-145.50;100.00;65435.88;5039868;28;20854;-61
2022/09/12 01:47:04;;;;;;;16.95;11.60;;;;;;;-145.50;100.00;65435.88;5035479;28;20053;-56
2022/09/12 01:49:45;;;;;;;13.35;10.82;;;;;;;-145.50;100.00;65435.88;5037554;28;20057;-60
2022/09/12 01:52:56;;;;;;;14.73;11.40;;;;;;;-145.50;100.00;65435.88;5035845;28;20053;-62
2022/09/12 01:55:27;;;;;;;17.02;12.43;;;;;;;-145.50;100.00;65435.88;4998459;28;20099;-61
2022/09/12 01:58:08;;;;;;;16.45;12.65;;;;;;;-145.50;100.00;65435.88;5037679;28;20103;-61
2022/09/12 02:00:43;;;;;;;17.08;11.77;;;;;;;-145.50;100.00;65435.88;5042756;28;20623;-62
2022/09/12 02:03:15;;;;;;;14.80;11.45;;;;;;;-145.50;100.00;65435.88;5028566;28;20048;-62
2022/09/12 02:05:50;;;;;;;15.35;11.75;;;;;;;-145.50;100.00;65435.88;5031333;28;20110;-62
2022/09/12 02:08:22;;;;;;;16.10;12.82;;;;;;;-145.50;100.00;65435.88;5038598;28;20049;-62
2022/09/12 02:10:54;;;;;;;17.88;13.63;;;;;;;-145.50;100.00;65435.88;5033653;28;20330;-61
2022/09/12 02:13:30;;;;;;;18.33;13.63;;;;;;;-145.50;100.00;65435.88;5061705;28;20044;-61
2022/09/12 02:16:08;;;;;;;18.02;13.48;;;;;;;-145.50;100.00;65435.88;5057631;28;20102;-62
2022/09/12 02:18:39;;;;;;;20.83;14.50;;;;;;;-145.50;100.00;65435.88;5055609;28;20052;-60
2022/09/12 02:21:06;;;;;;;21.90;15.10;;;;;;;-145.50;100.00;65435.88;5057822;28;20060;-60
2022/09/12 02:23:37;;;;;;;18.80;13.88;;;;;;;-145.50;100.00;65435.88;5056742;28;20113;-60
2022/09/12 02:26:22;;;;;;;19.50;14.40;;;;;;;-145.50;100.00;65435.88;5062843;28;20056;-62
2022/09/12 02:28:49;;;;;;;18.38;12.80;;;;;;;-145.50;100.00;65435.88;5053619;28;20061;-61
2022/09/12 02:31:36;;;;;;;21.15;13.00;;;;;;;-145.50;100.00;65435.88;5055640;28;20409;-61
2022/09/12 02:34:13;;;;;;;17.98;14.23;;;;;;;-145.50;100.00;65435.88;5043563;28;20053;-59
2022/09/12 02:37:02;;;;;;;19.87;13.10;;;;;;;-145.50;100.00;65435.88;5062257;28;20495;-60
2022/09/12 02:39:28;;;;;;;18.45;12.32;;;;;;;-145.50;100.00;65435.88;5053720;28;20277;-61
2022/09/12 02:41:58;;;;;;;19.63;14.30;;;;;;;-145.50;100.00;65435.88;5057001;28;20117;-61
2022/09/12 02:44:26;;;;;;;20.45;14.10;;;;;;;-145.50;100.00;65435.88;5049845;28;20063;-60
2022/09/12 02:46:58;;;;;;;18.98;14.05;;;;;;;-145.50;100.00;65435.88;5056713;28;20060;-61
2022/09/12 02:49:25;;;;;;;20.17;14.90;;;;;;;-145.50;100.00;65435.88;5061672;28;20401;-62
2022/09/12 02:51:51;;;;;;;20.90;14.65;;;;;;;-145.50;100.00;65435.88;5054559;28;20055;-56
2022/09/12 02:54:19;;;;;;;21.08;14.57;;;;;;;-145.50;100.00;65435.88;5062301;28;20060;-60
2022/09/12 02:56:46;;;;;;;19.05;14.85;;;;;;;-145.50;100.00;65435.88;5055694;28;20165;-59
2022/09/12 02:59:17;;;;;;;18.55;13.55;;;;;;;-145.50;100.00;65435.88;5056709;28;20105;-61
2022/09/12 03:02:04;;;;;;;19.77;14.27;;;;;;;-145.50;100.00;65435.88;5049316;28;20111;-62
2022/09/12 03:05:00;;;;;;;18.98;14.40;;;;;;;-145.50;100.00;65435.88;5061234;28;20507;-60
2022/09/12 03:07:42;;;;;;;19.40;12.60;;;;;;;-145.50;100.00;65435.88;5052365;28;20056;-61
2022/09/12 03:10:24;;;;;;;16.95;12.90;;;;;;;-145.50;100.00;65435.88;5059833;28;20698;-61
2022/09/12 03:13:08;;;;;;;15.95;12.25;;;;;;;-145.50;100.00;65435.88;5049963;28;20653;-62
2022/09/12 03:15:59;;;;;;;17.35;12.93;;;;;;;-145.50;100.00;65435.88;5054066;28;20498;-61
2022/09/12 03:18:45;;;;;;;17.33;13.02;;;;;;;-145.50;100.00;65435.88;5045005;28;20048;-61
2022/09/12 03:21:25;;;;;;;18.33;12.20;;;;;;;-145.50;100.00;65435.88;5051704;28;20056;-60
2022/09/12 03:24:16;;;;;;;17.48;12.50;;;;;;;-145.50;100.00;65435.88;5056592;28;20744;-61
2022/09/12 03:26:58;;;;;;;15.77;11.50;;;;;;;-145.50;100.00;65435.88;5057455;28;20612;-62
2022/09/12 03:29:26;;;;;;;14.65;11.57;;;;;;;-145.50;100.00;65435.88;5053163;28;20044;-61
2022/09/12 03:31:56;;;;;;;18.33;11.85;;;;;;;-145.50;100.00;65435.88;5054697;28;20056;-61
2022/09/12 03:34:24;;;;;;;16.73;12.32;;;;;;;-145.50;100.00;65435.88;5061750;28;20064;-61
2022/09/12 03:36:54;;;;;;;;;;;;;;;-145.50;100.00;65435.88;5054806;28;20458;-61
2022/09/12 03:39:23;;;;;;;20.15;12.75;;;;;;;-145.50;100.00;65435.88;5060439;28;19981;-62
2022/09/12 03:41:50;;;;;;;18.25;12.35;;;;;;;-145.50;100.00;65435.88;5048366;28;20126;-59
2022/09/12 03:44:17;;;;;;;19.00;12.88;;;;;;;-145.50;100.00;65435.88;5061155;28;20484;-60
2022/09/12 03:46:43;;;;;;;20.25;13.20;;;;;;;-145.50;100.00;65435.88;5060291;28;20428;-61
2022/09/12 03:49:10;;;;;;;19.98;14.48;;;;;;;-145.50;100.00;65435.88;5058552;28;20463;-60
2022/09/12 03:51:38;;;;;;;21.48;15.13;;;;;;;-145.50;100.00;65435.88;5061671;28;20497;-62
2022/09/12 03:54:04;;;;;;;18.70;14.97;;;;;;;-145.50;100.00;65435.88;5050913;28;20137;-62
2022/09/12 03:56:30;;;;;;;18.77;14.20;;;;;;;-145.50;100.00;65435.88;5056628;28;20277;-61
2022/09/12 03:58:57;;;;;;;21.70;14.60;;;;;;;-145.50;100.00;65435.88;5054092;28;20102;-58
2022/09/12 04:01:23;;;;;;;19.55;14.18;;;;;;;-145.50;100.00;65435.88;5060513;28;20044;-58
2022/09/12 04:03:51;;;;;;;21.33;14.30;;;;;;;-145.50;100.00;65435.88;5056171;28;20092;-60
2022/09/12 04:06:20;;;;;;;20.27;14.47;;;;;;;-145.50;100.00;65435.88;5059565;28;20488;-61
2022/09/12 04:08:49;;;;;;;;;;;;;;;-145.50;100.00;65435.88;5056625;28;20044;-61
2022/09/12 04:11:17;;;;;;;21.55;14.43;;;;;;;-145.50;100.00;65435.88;5047483;28;19959;-59
2022/09/12 04:13:44;;;;;;;20.90;14.68;;;;;;;-145.50;100.00;65435.88;5062160;28;20052;-61
2022/09/12 04:16:12;;;;;;;21.43;15.40;;;;;;;-145.50;100.00;65435.88;5054579;28;20048;-61
2022/09/12 04:18:39;;;;;;;21.17;15.32;;;;;;;-145.50;100.00;65435.88;5061090;28;20040;-62
2022/09/12 04:21:09;;;;;;;20.58;13.27;;;;;;;-145.50;100.00;65435.88;5053594;28;20099;-62
2022/09/12 04:23:35;;;;;;;19.08;14.73;;;;;;;-145.50;100.00;65435.88;5054899;28;20196;-60
2022/09/12 04:26:05;;;;;;;18.42;12.98;;;;;;;-145.50;100.00;65435.88;5060727;28;20513;-61
2022/09/12 04:28:33;;;;;;;17.70;12.52;;;;;;;-145.50;100.00;65435.88;5055713;28;20052;-61
2022/09/12 04:31:05;;;;;;;17.27;13.57;;;;;;;-145.50;100.00;65435.88;5061578;28;20056;-61
2022/09/12 04:33:33;;;;;;;18.98;13.15;;;;;;;-145.50;100.00;65435.88;5053358;28;20066;-62
2022/09/12 04:36:13;;;;;;;17.00;12.32;;;;;;;-145.50;100.00;65435.88;5056577;28;20052;-61
2022/09/12 04:38:39;;;;;;;17.48;12.85;;;;;;;-145.50;100.00;65435.88;5049564;28;20056;-61
2022/09/12 04:41:13;;;;;;;16.98;12.57;;;;;;;-145.50;100.00;65435.88;5060945;28;20106;-61
2022/09/12 04:43:40;;;;;;;20.70;14.27;;;;;;;-145.50;100.00;65435.88;5055381;28;20273;-62
2022/09/12 04:46:09;;;;;;;20.05;13.48;;;;;;;-145.50;100.00;65435.88;5058897;28;20628;-61
2022/09/12 04:48:35;;;;;;;;;;;;;;;-145.50;100.00;65435.88;5059710;28;20088;-63
2022/09/12 04:51:10;;;;;;;22.35;14.52;;;;;;;-145.50;100.00;65435.88;5043112;28;19924;-60
2022/09/12 04:53:36;;;;;;;19.55;13.68;;;;;;;-145.50;100.00;65435.88;5060829;28;20105;-62
2022/09/12 04:56:04;;;;;;;19.40;13.50;;;;;;;-145.50;100.00;65435.88;5053142;28;20397;-61
2022/09/12 04:58:32;;;;;;;21.55;14.45;;;;;;;-145.50;100.00;65435.88;5061558;28;20324;-61
2022/09/12 05:01:10;;;;;;;20.65;13.60;;;;;;;-145.50;100.00;65435.88;5057130;28;20102;-61
2022/09/12 05:03:38;;;;;;;19.08;13.63;;;;;;;-145.50;100.00;65435.88;5059824;28;20091;-61
2022/09/12 05:06:10;;;;;;;20.85;14.02;;;;;;;-145.50;100.00;65435.88;5058033;28;20052;-60
2022/09/12 05:08:37;;;;;;;20.75;14.50;;;;;;;-145.50;100.00;65435.88;5052845;28;20123;-60
2022/09/12 05:11:06;;;;;;;21.27;15.38;;;;;;;-145.50;100.00;65435.88;5057296;28;20048;-59
2022/09/12 05:13:33;;;;;;;22.58;15.40;;;;;;;-145.50;100.00;65435.88;5056305;28;20058;-60
2022/09/12 05:16:01;;;;;;;23.58;14.45;;;;;;;-145.50;100.00;65435.88;5064051;28;20390;-62
2022/09/12 05:18:29;;;;;;;20.53;15.40;;;;;;;-145.50;100.00;65435.88;5050979;28;20048;-61
2022/09/12 05:20:58;;;;;;;;;;;;;;;-145.50;100.00;65435.88;5059059;28;20595;-61
2022/09/12 05:23:24;;;;;;;23.85;16.65;;;;;;;-145.50;100.00;65435.88;5061754;28;20359;-62
2022/09/12 05:25:52;;;;;;;24.98;16.85;;;;;;;-145.50;100.00;65435.88;5050327;28;20117;-62
2022/09/12 05:28:20;;;;;;;23.38;15.63;;;;;;;-145.50;100.00;65435.88;5061996;28;20101;-61
2022/09/12 05:30:46;;;;;;;28.50;16.97;;;;;;;-145.50;100.00;65435.88;5050722;28;20052;-60
2022/09/12 05:33:14;;;;;;;21.67;15.35;;;;;;;-145.50;100.00;65435.88;5056307;28;20052;-60
2022/09/12 05:35:40;;;;;;;24.40;15.02;;;;;;;-145.50;100.00;65435.88;5051021;28;20048;-59
2022/09/12 05:38:07;;;;;;;27.67;16.55;;;;;;;-145.50;100.00;65435.88;5060551;28;20481;-60
2022/09/12 05:40:33;;;;;;;27.17;17.00;;;;;;;-145.50;100.00;65435.88;5062932;28;20052;-62
2022/09/12 05:42:59;;;;;;;25.73;17.48;;;;;;;-145.50;100.00;65435.88;5052370;28;20078;-62
2022/09/12 05:45:26;;;;;;;25.27;17.20;;;;;;;-145.50;100.00;65435.88;5056476;28;20052;-62
2022/09/12 05:47:55;;;;;;;32.40;19.67;;;;;;;-145.50;100.00;65435.88;5050389;28;20064;-62
2022/09/12 05:50:22;;;;;;;28.67;19.08;;;;;;;-145.50;100.00;65435.88;5062875;28;20044;-63
2022/09/12 05:52:49;;;;;;;35.20;19.45;;;;;;;-145.50;100.00;65435.88;5053280;28;20542;-61
2022/09/12 05:55:16;;;;;;;25.15;17.02;;;;;;;-145.50;100.00;65435.88;5052435;28;20055;-62
2022/09/12 05:57:45;;;;;;;27.05;16.23;;;;;;;-145.50;100.00;65435.88;5056470;28;20163;-62
2022/09/12 06:00:13;;;;;;;26.45;17.00;;;;;;;-145.50;100.00;65435.88;5041938;28;20055;-61
2022/09/12 06:02:40;;;;;;;;;;;;;;;-145.50;100.00;65435.88;5063464;28;20052;-61
2022/09/12 06:05:07;;;;;;;24.75;17.15;;;;;;;-145.50;100.00;65435.88;5056846;28;19967;-59
2022/09/12 06:07:34;;;;;;;32.22;19.15;;;;;;;-145.50;100.00;65435.88;5062799;28;20106;-61
2022/09/12 06:10:02;;;;;;;27.40;17.47;;;;;;;-145.50;100.00;65435.88;5054904;28;20765;-61
2022/09/12 06:12:29;;;;;;;35.05;19.45;;;;;;;-145.50;100.00;65435.88;5056510;28;20295;-62
2022/09/12 06:14:55;;;;;;;27.83;17.83;;;;;;;-145.50;100.00;65435.88;5058193;28;20049;-61
2022/09/12 06:17:22;;;;;;;34.95;19.90;;;;;;;-145.50;100.00;65435.88;5052777;28;20654;-61
2022/09/12 06:19:51;;;;;;;32.95;20.08;;;;;;;-145.50;100.00;65435.88;5062415;28;20571;-61
2022/09/12 06:22:18;;;;;;;27.33;18.33;;;;;;;-145.50;100.00;65435.88;5053824;28;20110;-61
2022/09/12 06:24:44;;;;;;;26.83;17.65;;;;;;;-145.50;100.00;65435.88;5062434;28;20436;-63
2022/09/12 06:27:10;;;;;;;30.85;19.02;;;;;;;-145.50;100.00;65435.88;5051567;28;20095;-59
2022/09/12 06:29:37;;;;;;;32.53;21.10;;;;;;;-145.50;100.00;65435.88;5059182;28;20724;-61
2022/09/12 06:32:04;;;;;;;29.08;19.00;;;;;;;-145.50;100.00;65435.88;5052829;28;20048;-60
2022/09/12 06:34:30;;;;;;;30.20;18.73;;;;;;;-145.50;100.00;65435.88;5050523;28;20103;-60
2022/09/12 06:36:56;;;;;;;33.05;19.27;;;;;;;-145.50;100.00;65435.88;5062024;28;20083;-61
2022/09/12 06:39:23;;;;;;;32.10;20.15;;;;;;;-145.50;100.00;65435.88;5054055;28;20097;-61
2022/09/12 06:41:51;;;;;;;33.50;20.08;;;;;;;-145.50;100.00;65435.88;5055699;28;20401;-60
2022/09/12 06:44:21;;;;;;;36.78;21.27;;;;;;;-145.50;100.00;65435.88;5055122;28;20278;-61
2022/09/12 06:46:48;;;;;;;35.65;21.42;;;;;;;-145.50;100.00;65435.88;5061712;28;20681;-61
2022/09/12 06:49:16;;;;;;;36.50;21.80;;;;;;;-145.50;100.00;65435.88;5061217;28;20048;-61
2022/09/12 06:51:43;;;;;;;35.97;21.17;;;;;;;-145.50;100.00;65435.88;5052339;28;20052;-61
2022/09/12 06:54:14;;;;;;;33.53;22.13;;;;;;;-145.50;100.00;65435.88;5053641;28;20105;-60
2022/09/12 06:56:40;;;;;;;36.97;22.10;;;;;;;-145.50;100.00;65435.88;5047369;28;20057;-58
2022/09/12 06:59:07;;;;;;;35.92;20.98;;;;;;;-145.50;100.00;65435.88;5054313;28;20145;-59
2022/09/12 07:01:33;;;;;;;40.13;22.95;;;;;;;-145.50;100.00;65435.88;5052575;28;20057;-61
2022/09/12 07:04:02;;;;;;;41.35;23.42;;;;;;;-145.50;100.00;65435.88;5057536;28;20413;-61
2022/09/12 07:06:34;;;;;;;40.60;22.85;;;;;;;-145.50;100.00;65435.88;5060383;28;20051;-62
2022/09/12 07:09:03;;;;;;;39.90;21.70;;;;;;;-145.50;100.00;65435.88;5046999;28;20071;-62
2022/09/12 07:11:35;;;;;;;40.10;23.35;;;;;;;-145.50;100.00;65435.88;5051560;28;20067;-62
2022/09/12 07:14:04;;;;;;;40.58;21.00;;;;;;;-145.50;100.00;65435.88;5050221;28;20055;-63
2022/09/12 07:16:31;;;;;;;;;;;;;;;-145.50;100.00;65435.88;5057749;28;20107;-62
2022/09/12 07:18:59;;;;;;;50.17;26.70;;;;;;;-145.50;100.00;65435.88;5055371;28;20292;-62
2022/09/12 07:21:26;;;;;;;60.67;31.08;;;;;;;-145.50;100.00;65435.88;5059925;28;20053;-62
2022/09/12 07:23:59;;;;;;;60.30;32.28;;;;;;;-145.50;100.00;65435.88;5049890;28;20117;-62
2022/09/12 07:26:26;;;;;;;58.22;31.75;;;;;;;-145.50;100.00;65435.88;5061445;28;20487;-62
2022/09/12 07:28:54;;;;;;;46.87;26.17;;;;;;;-145.50;100.00;65435.88;5062218;28;20110;-60
2022/09/12 07:31:41;;;;;;;56.70;30.83;;;;;;;-145.50;100.00;65435.88;5049792;28;20572;-60
2022/09/12 07:34:07;;;;;;;51.70;30.15;;;;;;;-145.50;100.00;65435.88;5056863;28;20519;-61
2022/09/12 07:36:34;;;;;;;47.00;26.70;;;;;;;-145.50;100.00;65435.88;5052504;28;20052;-62
2022/09/12 07:39:00;;;;;;;50.47;28.73;;;;;;;-145.50;100.00;65435.88;5058316;28;20088;-62
2022/09/12 07:41:29;;;;;;;59.08;31.38;;;;;;;-145.50;100.00;65435.88;5056258;28;20049;-62
2022/09/12 07:43:58;;;;;;;54.67;31.15;;;;;;;-145.50;100.00;65435.88;5062171;28;20060;-60
2022/09/12 07:46:25;;;;;;;58.90;31.67;;;;;;;-145.50;100.00;65435.88;5058688;28;20386;-61
2022/09/12 07:48:53;;;;;;;60.22;31.52;;;;;;;-145.50;100.00;65435.88;5049438;28;20054;-61
2022/09/12 07:51:20;;;;;;;45.63;26.48;;;;;;;-145.50;100.00;65435.88;5055436;28;20048;-63
2022/09/12 07:53:48;;;;;;;50.65;28.40;;;;;;;-145.50;100.00;65435.88;5056294;28;20131;-62
2022/09/12 07:56:15;;;;;;;50.42;29.10;;;;;;;-145.50;100.00;65435.88;5060123;28;20048;-62
2022/09/12 07:58:42;;;;;;;47.13;28.80;;;;;;;-145.50;100.00;65435.88;5048464;28;20048;-62
2022/09/12 08:01:17;;;;;;;38.28;25.17;;;;;;;-145.50;100.00;65435.88;5056697;28;20076;-62
2022/09/12 08:03:46;;;;;;;51.13;30.02;;;;;;;-145.50;100.00;65435.88;5049102;28;20052;-61
2022/09/12 08:06:23;;;;;;;47.10;29.75;;;;;;;-145.50;100.00;65435.88;5053294;28;20501;-62
2022/09/12 08:08:51;;;;;;;51.03;29.60;;;;;;;-145.50;100.00;65435.88;5054897;28;20503;-60
2022/09/12 08:11:19;;;;;;;53.65;30.90;;;;;;;-145.50;100.00;65435.88;5052666;28;20072;-61
2022/09/12 08:13:46;;;;;;;46.03;28.83;;;;;;;-145.50;100.00;65435.88;5055837;28;20053;-62
2022/09/12 08:16:22;;;;;;;46.58;27.23;;;;;;;-145.50;100.00;65435.88;5050916;28;20518;-61
2022/09/12 08:18:49;;;;;;;36.45;23.00;;;;;;;-145.50;100.00;65435.88;5051469;28;20323;-61
2022/09/12 08:21:21;;;;;;;42.70;26.58;;;;;;;-145.50;100.00;65435.88;5052428;28;20099;-61
2022/09/12 08:24:00;;;;;;;47.90;29.60;;;;;;;-145.50;100.00;65435.88;5058912;28;20045;-61
2022/09/12 08:26:27;;;;;;;48.55;29.45;;;;;;;-145.50;100.00;65435.88;5050854;28;20479;-61
2022/09/12 08:28:53;;;;;;;45.22;28.83;;;;;;;-145.50;100.00;65435.88;5056950;28;20109;-61
2022/09/12 08:31:23;;;;;;;37.72;24.55;;;;;;;-145.50;100.00;65435.88;5044261;28;20049;-61
2022/09/12 08:33:50;;;;;;;36.50;22.30;;;;;;;-145.50;100.00;65435.88;5051887;28;20056;-62
2022/09/12 08:36:20;;;;;;;46.70;26.05;;;;;;;-145.50;100.00;65435.88;5062404;28;20834;-63
2022/09/12 08:38:48;;;;;;;44.00;26.77;;;;;;;-145.50;100.00;65435.88;5056741;28;20045;-61
2022/09/12 08:41:37;;;;;;;37.92;24.70;;;;;;;-145.50;100.00;65435.88;5057373;28;20135;-62
2022/09/12 08:44:03;;;;;;;;;;;;;;;-145.50;100.00;65435.88;5047221;28;20052;-63
2022/09/12 08:46:56;;;;;;;38.60;24.05;;;;;;;-145.50;100.00;65435.88;5060524;28;19978;-64
2022/09/12 08:49:32;;;;;;;38.80;24.23;;;;;;;-145.50;100.00;65435.88;5047135;28;20052;-62
2022/09/12 08:52:06;;;;;;;38.53;24.70;;;;;;;-145.50;100.00;65435.88;5064492;28;20056;-61
2022/09/12 08:54:33;;;;;;;39.03;23.98;;;;;;;-145.50;100.00;65435.88;5062589;28;20641;-62
2022/09/12 08:57:04;;;;;;;36.63;23.73;;;;;;;-145.50;100.00;65435.88;5052049;28;20175;-63
2022/09/12 08:59:36;;;;;;;39.78;24.15;;;;;;;-145.50;100.00;65435.88;5055164;28;20052;-62
2022/09/12 09:02:12;;;;;;;29.65;19.25;;;;;;;-145.50;100.00;65435.88;5055873;28;20071;-61
2022/09/12 09:04:54;;;;;;;39.55;24.88;;;;;;;-145.50;100.00;65435.88;5061968;28;20071;-62
2022/09/12 09:07:59;;;;;;;36.40;21.30;;;;;;;-145.50;100.00;65435.88;5052854;28;20049;-61
2022/09/12 09:10:45;;;;;;;37.20;23.50;;;;;;;-145.50;100.00;65435.88;5041178;28;20141;-60
2022/09/12 09:16:43;;;;;;;34.70;22.02;;;;;;;-145.50;100.00;65435.88;5063644;28;20044;-61
2022/09/12 09:19:20;;;;;;;33.17;22.52;;;;;;;-145.50;100.00;65435.88;5050210;28;20493;-62
2022/09/12 09:21:53;;;;;;;31.05;21.08;;;;;;;-145.50;100.00;65435.88;5057022;28;20477;-62
2022/09/12 09:24:36;;;;;;;33.45;22.23;;;;;;;-145.50;100.00;65435.88;5058278;28;20114;-62
2022/09/12 09:27:10;;;;;;;32.10;21.13;;;;;;;-145.50;100.00;65435.88;5051791;28;20045;-63
2022/09/12 09:29:57;;;;;;;31.88;21.67;;;;;;;-145.50;100.00;65435.88;5053493;28;20057;-62
2022/09/12 09:32:46;;;;;;;26.67;20.00;;;;;;;-145.50;100.00;65435.88;5058775;28;20731;-63
2022/09/12 09:35:27;;;;;;;25.13;16.77;;;;;;;-145.50;100.00;65435.88;5052246;28;20814;-62
2022/09/12 09:38:44;;;;;;;30.40;19.75;;;;;;;-145.50;100.00;65435.88;5059839;28;20066;-62
2022/09/12 09:41:37;;;;;;;27.23;19.30;;;;;;;-145.50;100.00;65435.88;5023224;28;20159;-62
2022/09/12 09:44:03;;;;;;;23.67;17.88;;;;;;;-145.50;100.00;65435.88;5055129;28;20048;-62
2022/09/12 09:46:31;;;;;;;25.33;17.23;;;;;;;-145.50;100.00;65435.88;5062063;28;20086;-62
2022/09/12 09:49:00;;;;;;;20.92;15.88;;;;;;;-145.50;100.00;65435.88;5060874;28;20086;-63
2022/09/12 09:51:36;;;;;;;21.85;16.35;;;;;;;-145.50;100.00;65435.88;5061970;28;20125;-62
2022/09/12 09:54:16;;;;;;;22.55;15.75;;;;;;;-145.50;100.00;65435.88;5041958;28;20048;-62
2022/09/12 09:56:43;;;;;;;21.27;14.32;;;;;;;-145.50;100.00;65435.88;5062326;28;20102;-63
2022/09/12 09:59:27;;;;;;;20.92;13.60;;;;;;;-145.50;100.00;65435.88;5055853;28;20644;-63
2022/09/12 10:01:56;;;;;;;20.17;13.27;;;;;;;-145.50;100.00;65435.88;5063857;28;20048;-62
2022/09/12 10:04:26;;;;;;;20.52;14.00;;;;;;;-145.50;100.00;65435.88;5055757;28;20723;-64
2022/09/12 10:06:56;;;;;;;20.05;13.65;;;;;;;-145.50;100.00;65435.88;5058835;28;20266;-63
2022/09/12 10:09:28;;;;;;;15.25;10.82;;;;;;;-145.50;100.00;65435.88;5051663;28;20044;-63
2022/09/12 10:11:56;;;;;;;14.60;10.55;;;;;;;-145.50;100.00;65435.88;5058663;28;20089;-63
2022/09/12 10:14:26;;;;;;;16.98;11.10;;;;;;;-145.50;100.00;65435.88;5063006;28;20057;-62
2022/09/12 10:16:53;;;;;;;15.68;11.38;;;;;;;-145.50;100.00;65435.88;5056267;28;20114;-63
2022/09/12 10:19:25;;;;;;;15.05;9.50;;;;;;;-145.50;100.00;65435.88;5062490;28;20044;-65
2022/09/12 10:21:54;;;;;;;11.23;8.77;;;;;;;-145.50;100.00;65435.88;5051282;28;20040;-62
2022/09/12 10:24:32;;;;;;;9.55;7.70;;;;;;;-145.50;100.00;65435.88;5059274;28;20702;-65
2022/09/12 10:27:14;;;;;;;14.25;7.72;;;;;;;-145.50;100.00;65435.88;5056630;28;20125;-63
2022/09/12 10:29:48;;;;;;;11.77;8.73;;;;;;;-145.50;100.00;65435.88;5061238;28;20052;-62
2022/09/12 10:32:28;;;;;;;11.68;8.30;;;;;;;-145.50;100.00;65435.88;5050461;28;20070;-63
2022/09/12 10:35:01;;;;;;;10.63;7.03;;;;;;;-145.50;100.00;65435.88;5058895;28;20098;-63
2022/09/12 10:37:33;;;;;;;14.45;9.88;;;;;;;-145.50;100.00;65435.88;5059052;28;20044;-64
2022/09/12 10:40:02;;;;;;;16.60;8.82;;;;;;;-145.50;100.00;65435.88;5056714;28;20052;-63
2022/09/12 10:42:46;;;;;;;10.63;7.30;;;;;;;-145.50;100.00;65435.88;5063890;28;20052;-65
2022/09/12 10:45:18;;;;;;;6.90;6.07;;;;;;;-145.50;100.00;65435.88;5056452;28;20056;-64
2022/09/12 10:47:45;;;;;;;9.52;6.25;;;;;;;-145.50;100.00;65435.88;5062099;28;20492;-62
2022/09/12 10:50:19;;;;;;;12.50;6.90;;;;;;;-145.50;100.00;65435.88;5049757;28;20087;-64
2022/09/12 10:52:48;;;;;;;7.93;6.53;;;;;;;-145.50;100.00;65435.88;5062155;28;20040;-62
2022/09/12 10:55:15;;;;;;;12.18;8.02;;;;;;;-145.50;100.00;65435.88;5056722;28;20052;-63
2022/09/12 10:57:50;;;;;;;11.95;7.50;;;;;;;-145.50;100.00;65435.88;5062415;28;20055;-63
2022/09/12 11:00:19;;;;;;;11.10;7.20;;;;;;;-145.50;100.00;65435.88;5057116;28;20497;-64
2022/09/12 11:03:15;;;;;;;12.23;9.45;;;;;;;-145.50;100.00;65435.88;5052051;28;20453;-65
2022/09/12 11:06:14;;;;;;;9.75;7.03;;;;;;;-145.50;100.00;65435.88;5058579;28;20485;-64
2022/09/12 11:08:54;;;;;;;15.45;8.70;;;;;;;-145.50;100.00;65435.88;5051820;28;20060;-63
2022/09/12 11:11:50;;;;;;;10.80;8.02;;;;;;;-145.50;100.00;65435.88;5055051;28;20053;-64
2022/09/12 11:14:32;;;;;;;6.32;5.20;;;;;;;-145.50;100.00;65435.88;5055510;28;20117;-64
2022/09/12 11:17:22;;;;;;;10.38;5.93;;;;;;;-145.50;100.00;65435.88;5050406;28;20048;-63
2022/09/12 11:20:01;;;;;;;7.38;6.18;;;;;;;-145.50;100.00;65435.88;5049996;28;20047;-64
2022/09/12 11:22:42;;;;;;;7.72;5.65;;;;;;;-145.50;100.00;65435.88;5054913;28;20053;-64
2022/09/12 11:25:22;;;;;;;8.57;5.38;;;;;;;-145.50;100.00;65435.88;5055307;28;20056;-64